sensor_id;sensor_type;location;lat;lon;timestamp;temperature;humidity
59128;DHT22;44912;52.754;5.994;2022-09-01T00:01:11;14.90;99.90
59128;DHT22;44912;52.754;5.994;2022-09-01T00:03:43;14.90;99.90
59128;DHT22;44912;52.754;5.994;2022-09-01T00:06:29;14.90;99.90
59128;DHT22;44912;52.754;5.994;2022-09-01T00:08:59;14.90;99.90
59128;DHT22;44912;52.754;5.994;2022-09-01T00:14:56;14.80;99.90
59128;DHT22;44912;52.754;5.994;2022-09-01T00:17:23;14.80;99.90
59128;DHT22;44912;52.754;5.994;2022-09-01T00:20:04;14.70;99.90
59128;DHT22;44912;52.754;5.994;2022-09-01T00:22:39;14.70;99.90
59128;DHT22;44912;52.754;5.994;2022-09-01T00:25:26;14.70;99.90
59128;DHT22;44912;52.754;5.994;2022-09-01T00:29:07;14.70;99.90
59128;DHT22;44912;52.754;5.994;2022-09-01T00:32:04;14.60;99.90
59128;DHT22;44912;52.754;5.994;2022-09-01T00:34:57;14.60;99.90
59128;DHT22;44912;52.754;5.994;2022-09-01T00:37:22;14.60;99.90
59128;DHT22;44912;52.754;5.994;2022-09-01T00:39:48;14.60;99.90
59128;DHT22;44912;52.754;5.994;2022-09-01T00:42:35;14.50;99.90
59128;DHT22;44912;52.754;5.994;2022-09-01T00:45:20;14.50;99.90
59128;DHT22;44912;52.754;5.994;2022-09-01T00:47:48;14.40;99.90
59128;DHT22;44912;52.754;5.994;2022-09-01T00:51:22;14.40;99.90
59128;DHT22;44912;52.754;5.994;2022-09-01T00:53:48;14.30;99.90
59128;DHT22;44912;52.754;5.994;2022-09-01T00:56:14;14.30;99.90
59128;DHT22;44912;52.754;5.994;2022-09-01T00:58:41;14.20;99.90
59128;DHT22;44912;52.754;5.994;2022-09-01T01:01:28;14.20;99.90
59128;DHT22;44912;52.754;5.994;2022-09-01T01:04:03;14.20;99.90
59128;DHT22;44912;52.754;5.994;2022-09-01T01:06:29;14.20;99.90
59128;DHT22;44912;52.754;5.994;2022-09-01T01:08:58;14.10;99.90
59128;DHT22;44912;52.754;5.994;2022-09-01T01:11:29;14.10;99.90
59128;DHT22;44912;52.754;5.994;2022-09-01T01:14:04;14.10;99.90
59128;DHT22;44912;52.754;5.994;2022-09-01T01:16:44;14.00;99.90
59128;DHT22;44912;52.754;5.994;2022-09-01T01:22:24;14.00;99.90
59128;DHT22;44912;52.754;5.994;2022-09-01T01:25:08;13.90;99.90
59128;DHT22;44912;52.754;5.994;2022-09-01T01:27:37;13.90;99.90
59128;DHT22;44912;52.754;5.994;2022-09-01T01:30:05;13.90;99.90
59128;DHT22;44912;52.754;5.994;2022-09-01T01:32:38;13.80;99.90
59128;DHT22;44912;52.754;5.994;2022-09-01T01:35:11;13.90;99.90
59128;DHT22;44912;52.754;5.994;2022-09-01T01:37:40;13.80;99.90
59128;DHT22;44912;52.754;5.994;2022-09-01T01:40:08;13.70;99.90
59128;DHT22;44912;52.754;5.994;2022-09-01T01:42:42;13.70;99.90
59128;DHT22;44912;52.754;5.994;2022-09-01T01:45:08;13.70;99.90
59128;DHT22;44912;52.754;5.994;2022-09-01T01:47:37;13.70;99.90
59128;DHT22;44912;52.754;5.994;2022-09-01T01:50:03;13.60;99.90
59128;DHT22;44912;52.754;5.994;2022-09-01T01:52:34;13.60;99.90
59128;DHT22;44912;52.754;5.994;2022-09-01T01:55:00;13.60;99.90
59128;DHT22;44912;52.754;5.994;2022-09-01T01:57:26;13.50;99.90
59128;DHT22;44912;52.754;5.994;2022-09-01T01:59:56;13.50;99.90
59128;DHT22;44912;52.754;5.994;2022-09-01T02:02:22;13.50;99.90
59128;DHT22;44912;52.754;5.994;2022-09-01T02:04:48;13.50;99.90
59128;DHT22;44912;52.754;5.994;2022-09-01T02:07:20;13.50;99.90
59128;DHT22;44912;52.754;5.994;2022-09-01T02:09:48;13.40;99.90
59128;DHT22;44912;52.754;5.994;2022-09-01T02:12:17;13.40;99.90
59128;DHT22;44912;52.754;5.994;2022-09-01T02:14:44;13.30;99.90
59128;DHT22;44912;52.754;5.994;2022-09-01T02:17:10;13.30;99.90
59128;DHT22;44912;52.754;5.994;2022-09-01T02:19:35;13.30;99.90
59128;DHT22;44912;52.754;5.994;2022-09-01T02:22:06;13.30;99.90
59128;DHT22;44912;52.754;5.994;2022-09-01T02:24:36;13.20;99.90
59128;DHT22;44912;52.754;5.994;2022-09-01T02:27:02;13.20;99.90
59128;DHT22;44912;52.754;5.994;2022-09-01T02:29:29;13.10;99.90
59128;DHT22;44912;52.754;5.994;2022-09-01T02:31:55;13.10;99.90
59128;DHT22;44912;52.754;5.994;2022-09-01T02:34:23;13.10;99.90
59128;DHT22;44912;52.754;5.994;2022-09-01T02:36:52;13.00;99.90
59128;DHT22;44912;52.754;5.994;2022-09-01T02:39:20;13.00;99.90
59128;DHT22;44912;52.754;5.994;2022-09-01T02:41:47;13.00;99.90
59128;DHT22;44912;52.754;5.994;2022-09-01T02:44:13;13.00;99.90
59128;DHT22;44912;52.754;5.994;2022-09-01T02:46:41;12.90;99.90
59128;DHT22;44912;52.754;5.994;2022-09-01T02:49:13;12.90;99.90
59128;DHT22;44912;52.754;5.994;2022-09-01T02:51:47;12.90;99.90
59128;DHT22;44912;52.754;5.994;2022-09-01T02:54:14;12.80;99.90
59128;DHT22;44912;52.754;5.994;2022-09-01T02:56:42;12.80;99.90
59128;DHT22;44912;52.754;5.994;2022-09-01T02:59:09;12.80;99.90
59128;DHT22;44912;52.754;5.994;2022-09-01T03:01:38;12.80;99.90
59128;DHT22;44912;52.754;5.994;2022-09-01T03:04:05;12.80;99.90
59128;DHT22;44912;52.754;5.994;2022-09-01T03:06:32;12.70;99.90
59128;DHT22;44912;52.754;5.994;2022-09-01T03:08:59;12.70;99.90
59128;DHT22;44912;52.754;5.994;2022-09-01T03:11:26;12.70;99.90
59128;DHT22;44912;52.754;5.994;2022-09-01T03:13:53;12.60;99.90
59128;DHT22;44912;52.754;5.994;2022-09-01T03:16:19;12.60;99.90
59128;DHT22;44912;52.754;5.994;2022-09-01T03:18:46;12.60;99.90
59128;DHT22;44912;52.754;5.994;2022-09-01T03:21:13;12.50;99.90
59128;DHT22;44912;52.754;5.994;2022-09-01T03:23:45;12.50;99.90
59128;DHT22;44912;52.754;5.994;2022-09-01T03:26:11;12.50;99.90
59128;DHT22;44912;52.754;5.994;2022-09-01T03:28:37;12.40;99.90
59128;DHT22;44912;52.754;5.994;2022-09-01T03:31:03;12.40;99.90
59128;DHT22;44912;52.754;5.994;2022-09-01T03:33:29;12.40;99.90
59128;DHT22;44912;52.754;5.994;2022-09-01T03:35:55;12.30;99.90
59128;DHT22;44912;52.754;5.994;2022-09-01T03:38:21;12.30;99.90
59128;DHT22;44912;52.754;5.994;2022-09-01T03:40:51;12.30;99.90
59128;DHT22;44912;52.754;5.994;2022-09-01T03:43:18;12.20;99.90
59128;DHT22;44912;52.754;5.994;2022-09-01T03:45:47;12.20;99.90
59128;DHT22;44912;52.754;5.994;2022-09-01T03:48:13;12.20;99.90
59128;DHT22;44912;52.754;5.994;2022-09-01T03:50:43;12.20;99.90
59128;DHT22;44912;52.754;5.994;2022-09-01T03:53:14;12.20;99.90
59128;DHT22;44912;52.754;5.994;2022-09-01T03:55:40;12.20;99.90
59128;DHT22;44912;52.754;5.994;2022-09-01T03:58:09;12.20;99.90
59128;DHT22;44912;52.754;5.994;2022-09-01T04:00:46;12.20;99.90
59128;DHT22;44912;52.754;5.994;2022-09-01T04:03:13;12.10;99.90
59128;DHT22;44912;52.754;5.994;2022-09-01T04:05:43;12.10;99.90
59128;DHT22;44912;52.754;5.994;2022-09-01T04:08:10;12.00;99.90
59128;DHT22;44912;52.754;5.994;2022-09-01T04:10:46;12.00;99.90
59128;DHT22;44912;52.754;5.994;2022-09-01T04:13:15;12.00;99.90
59128;DHT22;44912;52.754;5.994;2022-09-01T04:15:41;11.90;99.90
59128;DHT22;44912;52.754;5.994;2022-09-01T04:18:07;11.90;99.90
59128;DHT22;44912;52.754;5.994;2022-09-01T04:20:45;11.90;99.90
59128;DHT22;44912;52.754;5.994;2022-09-01T04:23:30;11.90;99.90
59128;DHT22;44912;52.754;5.994;2022-09-01T04:26:07;11.90;99.90
59128;DHT22;44912;52.754;5.994;2022-09-01T04:28:36;11.80;99.90
59128;DHT22;44912;52.754;5.994;2022-09-01T04:31:04;11.80;99.90
59128;DHT22;44912;52.754;5.994;2022-09-01T04:33:34;11.80;99.90
59128;DHT22;44912;52.754;5.994;2022-09-01T04:36:20;11.80;99.90
59128;DHT22;44912;52.754;5.994;2022-09-01T04:38:56;11.80;99.90
59128;DHT22;44912;52.754;5.994;2022-09-01T04:41:23;11.80;99.90
59128;DHT22;44912;52.754;5.994;2022-09-01T04:43:51;11.80;99.90
59128;DHT22;44912;52.754;5.994;2022-09-01T04:46:20;11.70;99.90
59128;DHT22;44912;52.754;5.994;2022-09-01T04:48:47;11.70;99.90
59128;DHT22;44912;52.754;5.994;2022-09-01T04:51:15;11.70;99.90
59128;DHT22;44912;52.754;5.994;2022-09-01T04:53:42;11.70;99.90
59128;DHT22;44912;52.754;5.994;2022-09-01T04:56:17;11.70;99.90
59128;DHT22;44912;52.754;5.994;2022-09-01T04:58:47;11.70;99.90
59128;DHT22;44912;52.754;5.994;2022-09-01T05:01:18;11.70;99.90
59128;DHT22;44912;52.754;5.994;2022-09-01T05:03:45;11.60;99.90
59128;DHT22;44912;52.754;5.994;2022-09-01T05:06:17;11.60;99.90
59128;DHT22;44912;52.754;5.994;2022-09-01T05:08:43;11.60;99.90
59128;DHT22;44912;52.754;5.994;2022-09-01T05:11:13;11.60;99.90
59128;DHT22;44912;52.754;5.994;2022-09-01T05:13:44;11.60;99.90
59128;DHT22;44912;52.754;5.994;2022-09-01T05:16:12;11.60;99.90
59128;DHT22;44912;52.754;5.994;2022-09-01T05:18:41;11.70;99.90
59128;DHT22;44912;52.754;5.994;2022-09-01T05:21:09;11.70;99.90
59128;DHT22;44912;52.754;5.994;2022-09-01T05:23:37;11.70;99.90
59128;DHT22;44912;52.754;5.994;2022-09-01T05:26:02;11.70;99.90
59128;DHT22;44912;52.754;5.994;2022-09-01T05:28:28;11.70;99.90
59128;DHT22;44912;52.754;5.994;2022-09-01T05:30:54;11.80;99.90
59128;DHT22;44912;52.754;5.994;2022-09-01T05:33:20;11.80;99.90
59128;DHT22;44912;52.754;5.994;2022-09-01T05:35:54;11.90;99.90
59128;DHT22;44912;52.754;5.994;2022-09-01T05:38:20;12.00;99.90
59128;DHT22;44912;52.754;5.994;2022-09-01T05:40:55;12.10;99.90
59128;DHT22;44912;52.754;5.994;2022-09-01T05:43:22;12.20;99.90
59128;DHT22;44912;52.754;5.994;2022-09-01T05:45:48;12.30;99.90
59128;DHT22;44912;52.754;5.994;2022-09-01T05:48:14;12.40;99.90
59128;DHT22;44912;52.754;5.994;2022-09-01T05:50:44;12.50;99.90
59128;DHT22;44912;52.754;5.994;2022-09-01T05:53:11;12.60;99.90
59128;DHT22;44912;52.754;5.994;2022-09-01T05:55:46;12.70;99.90
59128;DHT22;44912;52.754;5.994;2022-09-01T05:58:14;12.80;99.90
59128;DHT22;44912;52.754;5.994;2022-09-01T06:00:45;12.90;99.90
59128;DHT22;44912;52.754;5.994;2022-09-01T06:03:14;13.00;99.90
59128;DHT22;44912;52.754;5.994;2022-09-01T06:05:42;13.10;99.90
59128;DHT22;44912;52.754;5.994;2022-09-01T06:08:09;13.20;99.90
59128;DHT22;44912;52.754;5.994;2022-09-01T06:10:39;13.30;99.90
59128;DHT22;44912;52.754;5.994;2022-09-01T06:13:07;13.40;99.90
59128;DHT22;44912;52.754;5.994;2022-09-01T06:15:34;13.40;99.90
59128;DHT22;44912;52.754;5.994;2022-09-01T06:18:01;13.50;99.90
59128;DHT22;44912;52.754;5.994;2022-09-01T06:20:26;13.60;99.90
59128;DHT22;44912;52.754;5.994;2022-09-01T06:22:52;13.70;99.90
59128;DHT22;44912;52.754;5.994;2022-09-01T06:25:19;13.80;99.90
59128;DHT22;44912;52.754;5.994;2022-09-01T06:27:46;13.90;99.90
59128;DHT22;44912;52.754;5.994;2022-09-01T06:30:14;13.90;99.90
59128;DHT22;44912;52.754;5.994;2022-09-01T06:32:43;14.00;99.90
59128;DHT22;44912;52.754;5.994;2022-09-01T06:35:12;14.10;99.90
59128;DHT22;44912;52.754;5.994;2022-09-01T06:37:40;14.20;99.90
59128;DHT22;44912;52.754;5.994;2022-09-01T06:40:09;14.30;99.90
59128;DHT22;44912;52.754;5.994;2022-09-01T06:42:45;14.40;99.90
59128;DHT22;44912;52.754;5.994;2022-09-01T06:45:16;14.50;99.90
59128;DHT22;44912;52.754;5.994;2022-09-01T06:47:43;14.60;99.90
59128;DHT22;44912;52.754;5.994;2022-09-01T06:50:11;14.70;99.90
59128;DHT22;44912;52.754;5.994;2022-09-01T06:52:41;14.80;99.90
59128;DHT22;44912;52.754;5.994;2022-09-01T06:55:11;14.90;99.90
59128;DHT22;44912;52.754;5.994;2022-09-01T06:57:38;15.10;99.90
59128;DHT22;44912;52.754;5.994;2022-09-01T07:00:06;15.20;99.90
59128;DHT22;44912;52.754;5.994;2022-09-01T07:02:46;15.30;99.90
59128;DHT22;44912;52.754;5.994;2022-09-01T07:05:14;15.40;99.90
59128;DHT22;44912;52.754;5.994;2022-09-01T07:07:51;15.50;99.90
59128;DHT22;44912;52.754;5.994;2022-09-01T07:10:20;15.70;99.90
59128;DHT22;44912;52.754;5.994;2022-09-01T07:13:05;15.80;99.90
59128;DHT22;44912;52.754;5.994;2022-09-01T07:15:36;15.90;99.90
59128;DHT22;44912;52.754;5.994;2022-09-01T07:18:03;16.00;99.90
59128;DHT22;44912;52.754;5.994;2022-09-01T07:20:28;16.20;99.90
59128;DHT22;44912;52.754;5.994;2022-09-01T07:23:04;16.30;99.90
59128;DHT22;44912;52.754;5.994;2022-09-01T07:25:30;16.50;99.90
59128;DHT22;44912;52.754;5.994;2022-09-01T07:27:57;16.60;99.90
59128;DHT22;44912;52.754;5.994;2022-09-01T07:30:24;16.70;99.90
59128;DHT22;44912;52.754;5.994;2022-09-01T07:32:50;16.90;99.90
59128;DHT22;44912;52.754;5.994;2022-09-01T07:35:19;17.00;99.90
59128;DHT22;44912;52.754;5.994;2022-09-01T07:37:46;17.10;99.90
59128;DHT22;44912;52.754;5.994;2022-09-01T07:40:15;17.20;99.90
59128;DHT22;44912;52.754;5.994;2022-09-01T07:42:46;17.30;99.90
59128;DHT22;44912;52.754;5.994;2022-09-01T07:45:13;17.50;99.90
59128;DHT22;44912;52.754;5.994;2022-09-01T07:47:40;17.60;99.90
59128;DHT22;44912;52.754;5.994;2022-09-01T07:50:08;17.70;99.90
59128;DHT22;44912;52.754;5.994;2022-09-01T07:52:36;17.90;99.90
59128;DHT22;44912;52.754;5.994;2022-09-01T07:55:12;18.00;99.90
59128;DHT22;44912;52.754;5.994;2022-09-01T07:57:40;18.10;99.90
59128;DHT22;44912;52.754;5.994;2022-09-01T08:00:08;18.20;99.90
59128;DHT22;44912;52.754;5.994;2022-09-01T08:02:35;18.30;99.90
59128;DHT22;44912;52.754;5.994;2022-09-01T08:05:04;18.40;99.90
59128;DHT22;44912;52.754;5.994;2022-09-01T08:07:37;18.40;99.90
59128;DHT22;44912;52.754;5.994;2022-09-01T08:10:04;18.60;99.90
59128;DHT22;44912;52.754;5.994;2022-09-01T08:12:30;18.70;99.90
59128;DHT22;44912;52.754;5.994;2022-09-01T08:14:56;18.80;99.90
59128;DHT22;44912;52.754;5.994;2022-09-01T08:17:21;18.90;99.90
59128;DHT22;44912;52.754;5.994;2022-09-01T08:19:47;19.00;99.90
59128;DHT22;44912;52.754;5.994;2022-09-01T08:22:14;19.20;99.90
59128;DHT22;44912;52.754;5.994;2022-09-01T08:24:39;19.40;99.90
59128;DHT22;44912;52.754;5.994;2022-09-01T08:27:05;19.60;99.90
59128;DHT22;44912;52.754;5.994;2022-09-01T08:29:31;19.70;99.90
59128;DHT22;44912;52.754;5.994;2022-09-01T08:31:57;19.90;99.90
59128;DHT22;44912;52.754;5.994;2022-09-01T08:34:24;20.10;99.90
59128;DHT22;44912;52.754;5.994;2022-09-01T08:36:50;20.20;99.90
59128;DHT22;44912;52.754;5.994;2022-09-01T08:39:15;20.40;99.90
59128;DHT22;44912;52.754;5.994;2022-09-01T08:44:54;20.60;99.90
59128;DHT22;44912;52.754;5.994;2022-09-01T08:47:21;20.80;99.90
59128;DHT22;44912;52.754;5.994;2022-09-01T08:49:47;20.90;99.90
59128;DHT22;44912;52.754;5.994;2022-09-01T08:52:29;21.10;99.90
59128;DHT22;44912;52.754;5.994;2022-09-01T08:55:12;21.30;99.90
59128;DHT22;44912;52.754;5.994;2022-09-01T08:57:41;21.40;99.90
59128;DHT22;44912;52.754;5.994;2022-09-01T09:00:10;21.60;99.90
59128;DHT22;44912;52.754;5.994;2022-09-01T09:03:16;21.80;99.90
59128;DHT22;44912;52.754;5.994;2022-09-01T09:06:11;21.90;99.90
59128;DHT22;44912;52.754;5.994;2022-09-01T09:09:00;21.90;99.90
59128;DHT22;44912;52.754;5.994;2022-09-01T09:12:02;22.00;99.90
59128;DHT22;44912;52.754;5.994;2022-09-01T09:17:07;22.20;99.90
59128;DHT22;44912;52.754;5.994;2022-09-01T09:19:38;22.20;99.90
59128;DHT22;44912;52.754;5.994;2022-09-01T09:22:07;22.40;99.90
59128;DHT22;44912;52.754;5.994;2022-09-01T09:24:56;22.40;99.90
59128;DHT22;44912;52.754;5.994;2022-09-01T09:27:33;22.50;99.90
59128;DHT22;44912;52.754;5.994;2022-09-01T09:33:00;22.70;99.90
59128;DHT22;44912;52.754;5.994;2022-09-01T09:35:33;22.80;99.90
59128;DHT22;44912;52.754;5.994;2022-09-01T09:43:31;23.00;99.90
59128;DHT22;44912;52.754;5.994;2022-09-01T09:48:49;23.30;99.90
59128;DHT22;44912;52.754;5.994;2022-09-01T09:51:30;23.50;99.90
59128;DHT22;44912;52.754;5.994;2022-09-01T09:54:13;23.60;99.90
59128;DHT22;44912;52.754;5.994;2022-09-01T09:56:39;23.60;99.90
59128;DHT22;44912;52.754;5.994;2022-09-01T09:59:30;23.70;99.90
59128;DHT22;44912;52.754;5.994;2022-09-01T10:01:58;23.60;99.90
59128;DHT22;44912;52.754;5.994;2022-09-01T10:04:33;23.70;99.90
59128;DHT22;44912;52.754;5.994;2022-09-01T10:07:00;23.80;99.90
59128;DHT22;44912;52.754;5.994;2022-09-01T10:11:54;23.80;99.90
59128;DHT22;44912;52.754;5.994;2022-09-01T10:14:25;23.90;99.90
59128;DHT22;44912;52.754;5.994;2022-09-01T10:17:00;24.10;99.90
59128;DHT22;44912;52.754;5.994;2022-09-01T10:19:26;24.20;99.90
59128;DHT22;44912;52.754;5.994;2022-09-01T10:21:55;24.30;99.90
59128;DHT22;44912;52.754;5.994;2022-09-01T10:24:32;24.40;99.90
59128;DHT22;44912;52.754;5.994;2022-09-01T10:27:02;24.40;99.90
59128;DHT22;44912;52.754;5.994;2022-09-01T10:29:35;24.50;99.90
59128;DHT22;44912;52.754;5.994;2022-09-01T10:32:07;24.60;99.90
59128;DHT22;44912;52.754;5.994;2022-09-01T10:34:35;24.80;99.90
59128;DHT22;44912;52.754;5.994;2022-09-01T10:37:03;24.90;99.90
59128;DHT22;44912;52.754;5.994;2022-09-01T10:39:30;24.90;99.90
59128;DHT22;44912;52.754;5.994;2022-09-01T10:41:57;25.00;99.90
59128;DHT22;44912;52.754;5.994;2022-09-01T10:44:37;25.10;99.90
59128;DHT22;44912;52.754;5.994;2022-09-01T10:47:33;25.30;99.90
59128;DHT22;44912;52.754;5.994;2022-09-01T10:50:05;25.50;99.90
59128;DHT22;44912;52.754;5.994;2022-09-01T10:55:34;25.60;99.90
59128;DHT22;44912;52.754;5.994;2022-09-01T10:58:24;25.60;99.90
59128;DHT22;44912;52.754;5.994;2022-09-01T11:00:55;25.60;99.90
59128;DHT22;44912;52.754;5.994;2022-09-01T11:06:04;25.30;99.90
59128;DHT22;44912;52.754;5.994;2022-09-01T11:13:49;24.50;99.90
59128;DHT22;44912;52.754;5.994;2022-09-01T11:16:31;24.40;99.90
59128;DHT22;44912;52.754;5.994;2022-09-01T11:27:06;25.40;99.90
59128;DHT22;44912;52.754;5.994;2022-09-01T11:29:54;25.70;99.90
59128;DHT22;44912;52.754;5.994;2022-09-01T11:32:24;25.90;99.90
59128;DHT22;44912;52.754;5.994;2022-09-01T11:34:53;26.00;99.90
59128;DHT22;44912;52.754;5.994;2022-09-01T11:37:22;26.00;99.60
59128;DHT22;44912;52.754;5.994;2022-09-01T11:39:51;25.70;99.90
59128;DHT22;44912;52.754;5.994;2022-09-01T11:42:35;25.50;99.30
59128;DHT22;44912;52.754;5.994;2022-09-01T11:45:16;25.60;99.20
59128;DHT22;44912;52.754;5.994;2022-09-01T11:47:46;25.80;97.80
59128;DHT22;44912;52.754;5.994;2022-09-01T11:50:22;26.00;99.80
59128;DHT22;44912;52.754;5.994;2022-09-01T11:53:27;26.20;99.70
59128;DHT22;44912;52.754;5.994;2022-09-01T11:55:48;26.30;99.60
59128;DHT22;44912;52.754;5.994;2022-09-01T12:00:57;26.50;97.30
59128;DHT22;44912;52.754;5.994;2022-09-01T12:03:35;26.50;97.60
59128;DHT22;44912;52.754;5.994;2022-09-01T12:06:06;26.60;97.90
59128;DHT22;44912;52.754;5.994;2022-09-01T12:08:36;26.60;97.60
59128;DHT22;44912;52.754;5.994;2022-09-01T12:14:10;25.90;96.60
59128;DHT22;44912;52.754;5.994;2022-09-01T12:16:37;25.50;96.80
59128;DHT22;44912;52.754;5.994;2022-09-01T12:19:05;25.60;97.60
59128;DHT22;44912;52.754;5.994;2022-09-01T12:21:34;25.90;97.30
59128;DHT22;44912;52.754;5.994;2022-09-01T12:26:35;25.50;95.30
59128;DHT22;44912;52.754;5.994;2022-09-01T12:29:01;25.20;96.80
59128;DHT22;44912;52.754;5.994;2022-09-01T12:31:26;25.20;97.00
59128;DHT22;44912;52.754;5.994;2022-09-01T12:33:54;25.50;96.70
59128;DHT22;44912;52.754;5.994;2022-09-01T12:36:35;25.70;96.70
59128;DHT22;44912;52.754;5.994;2022-09-01T12:41:43;26.20;96.50
59128;DHT22;44912;52.754;5.994;2022-09-01T12:47:04;26.50;96.10
59128;DHT22;44912;52.754;5.994;2022-09-01T12:54:39;26.90;92.70
59128;DHT22;44912;52.754;5.994;2022-09-01T12:57:05;26.90;93.50
59128;DHT22;44912;52.754;5.994;2022-09-01T12:59:31;27.00;93.30
59128;DHT22;44912;52.754;5.994;2022-09-01T13:01:57;27.10;93.20
59128;DHT22;44912;52.754;5.994;2022-09-01T13:04:42;27.20;92.60
59128;DHT22;44912;52.754;5.994;2022-09-01T13:07:08;27.20;92.30
59128;DHT22;44912;52.754;5.994;2022-09-01T13:09:34;27.30;92.00
59128;DHT22;44912;52.754;5.994;2022-09-01T13:12:20;27.20;91.50
59128;DHT22;44912;52.754;5.994;2022-09-01T13:14:46;27.30;91.80
59128;DHT22;44912;52.754;5.994;2022-09-01T13:17:12;27.30;91.80
59128;DHT22;44912;52.754;5.994;2022-09-01T13:19:37;27.30;91.80
59128;DHT22;44912;52.754;5.994;2022-09-01T13:22:04;27.50;91.30
59128;DHT22;44912;52.754;5.994;2022-09-01T13:24:30;27.60;90.70
59128;DHT22;44912;52.754;5.994;2022-09-01T13:26:55;27.60;90.30
59128;DHT22;44912;52.754;5.994;2022-09-01T13:29:22;27.30;90.10
59128;DHT22;44912;52.754;5.994;2022-09-01T13:31:48;27.00;90.20
59128;DHT22;44912;52.754;5.994;2022-09-01T13:34:14;26.80;90.20
59128;DHT22;44912;52.754;5.994;2022-09-01T13:36:39;26.80;90.10
59128;DHT22;44912;52.754;5.994;2022-09-01T13:39:05;26.90;90.30
59128;DHT22;44912;52.754;5.994;2022-09-01T13:41:31;26.90;90.90
59128;DHT22;44912;52.754;5.994;2022-09-01T13:43:56;27.00;91.10
59128;DHT22;44912;52.754;5.994;2022-09-01T13:46:22;27.00;90.40
59128;DHT22;44912;52.754;5.994;2022-09-01T13:48:48;26.90;90.20
59128;DHT22;44912;52.754;5.994;2022-09-01T13:51:24;26.80;89.80
59128;DHT22;44912;52.754;5.994;2022-09-01T13:53:51;26.80;89.90
59128;DHT22;44912;52.754;5.994;2022-09-01T13:56:17;26.90;90.30
59128;DHT22;44912;52.754;5.994;2022-09-01T13:58:42;26.90;89.70
59128;DHT22;44912;52.754;5.994;2022-09-01T14:01:08;26.80;88.50
59128;DHT22;44912;52.754;5.994;2022-09-01T14:03:33;26.70;87.90
59128;DHT22;44912;52.754;5.994;2022-09-01T14:05:59;26.60;87.00
59128;DHT22;44912;52.754;5.994;2022-09-01T14:08:25;26.50;86.90
59128;DHT22;44912;52.754;5.994;2022-09-01T14:10:52;26.40;87.40
59128;DHT22;44912;52.754;5.994;2022-09-01T14:13:20;26.40;88.60
59128;DHT22;44912;52.754;5.994;2022-09-01T14:15:46;26.40;89.30
59128;DHT22;44912;52.754;5.994;2022-09-01T14:18:14;26.30;89.20
59128;DHT22;44912;52.754;5.994;2022-09-01T14:20:43;26.30;87.30
59128;DHT22;44912;52.754;5.994;2022-09-01T14:23:10;26.20;86.90
59128;DHT22;44912;52.754;5.994;2022-09-01T14:25:40;26.10;87.10
59128;DHT22;44912;52.754;5.994;2022-09-01T14:28:05;26.10;87.20
59128;DHT22;44912;52.754;5.994;2022-09-01T14:30:32;26.00;86.80
59128;DHT22;44912;52.754;5.994;2022-09-01T14:32:59;26.00;85.90
59128;DHT22;44912;52.754;5.994;2022-09-01T14:35:25;26.00;86.10
59128;DHT22;44912;52.754;5.994;2022-09-01T14:37:52;26.00;86.30
59128;DHT22;44912;52.754;5.994;2022-09-01T14:40:20;26.10;86.90
59128;DHT22;44912;52.754;5.994;2022-09-01T14:42:48;26.10;88.70
59128;DHT22;44912;52.754;5.994;2022-09-01T14:45:16;26.20;87.20
59128;DHT22;44912;52.754;5.994;2022-09-01T14:47:44;26.20;87.30
59128;DHT22;44912;52.754;5.994;2022-09-01T14:50:10;26.10;86.00
59128;DHT22;44912;52.754;5.994;2022-09-01T14:52:36;26.00;86.30
59128;DHT22;44912;52.754;5.994;2022-09-01T14:55:03;26.00;86.80
59128;DHT22;44912;52.754;5.994;2022-09-01T14:57:29;26.00;87.00
59128;DHT22;44912;52.754;5.994;2022-09-01T14:59:57;26.00;86.90
59128;DHT22;44912;52.754;5.994;2022-09-01T15:02:23;26.00;86.60
59128;DHT22;44912;52.754;5.994;2022-09-01T15:04:50;26.00;86.60
59128;DHT22;44912;52.754;5.994;2022-09-01T15:07:17;26.00;85.00
59128;DHT22;44912;52.754;5.994;2022-09-01T15:09:42;26.00;86.30
59128;DHT22;44912;52.754;5.994;2022-09-01T15:12:08;26.10;87.30
59128;DHT22;44912;52.754;5.994;2022-09-01T15:14:34;26.20;87.80
59128;DHT22;44912;52.754;5.994;2022-09-01T15:17:00;26.20;87.10
59128;DHT22;44912;52.754;5.994;2022-09-01T15:19:25;26.10;86.10
59128;DHT22;44912;52.754;5.994;2022-09-01T15:21:51;26.00;85.90
59128;DHT22;44912;52.754;5.994;2022-09-01T15:24:17;25.80;86.30
59128;DHT22;44912;52.754;5.994;2022-09-01T15:26:43;25.60;86.80
59128;DHT22;44912;52.754;5.994;2022-09-01T15:29:11;25.50;87.20
59128;DHT22;44912;52.754;5.994;2022-09-01T15:31:37;25.50;88.00
59128;DHT22;44912;52.754;5.994;2022-09-01T15:34:04;25.50;86.90
59128;DHT22;44912;52.754;5.994;2022-09-01T15:36:30;25.50;86.60
59128;DHT22;44912;52.754;5.994;2022-09-01T15:38:58;25.60;86.60
59128;DHT22;44912;52.754;5.994;2022-09-01T15:41:26;25.60;87.30
59128;DHT22;44912;52.754;5.994;2022-09-01T15:43:53;25.70;87.10
59128;DHT22;44912;52.754;5.994;2022-09-01T15:46:20;25.70;86.20
59128;DHT22;44912;52.754;5.994;2022-09-01T15:48:45;25.70;86.70
59128;DHT22;44912;52.754;5.994;2022-09-01T15:53:51;25.80;84.90
59128;DHT22;44912;52.754;5.994;2022-09-01T15:56:16;25.80;85.90
59128;DHT22;44912;52.754;5.994;2022-09-01T15:58:43;25.80;85.30
59128;DHT22;44912;52.754;5.994;2022-09-01T16:01:09;25.90;86.00
59128;DHT22;44912;52.754;5.994;2022-09-01T16:03:34;26.00;86.30
59128;DHT22;44912;52.754;5.994;2022-09-01T16:06:00;26.20;87.30
59128;DHT22;44912;52.754;5.994;2022-09-01T16:08:26;26.50;87.40
59128;DHT22;44912;52.754;5.994;2022-09-01T16:10:52;26.60;86.00
59128;DHT22;44912;52.754;5.994;2022-09-01T16:13:19;26.60;85.10
59128;DHT22;44912;52.754;5.994;2022-09-01T16:16:11;26.70;84.30
59128;DHT22;44912;52.754;5.994;2022-09-01T16:18:54;26.60;83.50
59128;DHT22;44912;52.754;5.994;2022-09-01T16:24:09;26.70;82.90
59128;DHT22;44912;52.754;5.994;2022-09-01T16:26:36;26.80;82.90
59128;DHT22;44912;52.754;5.994;2022-09-01T16:29:11;26.80;82.80
59128;DHT22;44912;52.754;5.994;2022-09-01T16:31:38;27.00;82.90
59128;DHT22;44912;52.754;5.994;2022-09-01T16:34:14;27.20;82.50
59128;DHT22;44912;52.754;5.994;2022-09-01T16:36:56;27.40;81.90
59128;DHT22;44912;52.754;5.994;2022-09-01T16:42:12;27.70;81.30
59128;DHT22;44912;52.754;5.994;2022-09-01T16:47:30;27.90;80.40
59128;DHT22;44912;52.754;5.994;2022-09-01T16:50:08;28.10;80.20
59128;DHT22;44912;52.754;5.994;2022-09-01T16:53:02;28.20;80.00
59128;DHT22;44912;52.754;5.994;2022-09-01T16:58:20;28.30;79.00
59128;DHT22;44912;52.754;5.994;2022-09-01T17:01:11;28.50;79.10
59128;DHT22;44912;52.754;5.994;2022-09-01T17:04:08;28.80;78.50
59128;DHT22;44912;52.754;5.994;2022-09-01T17:09:37;29.70;76.80
59128;DHT22;44912;52.754;5.994;2022-09-01T17:12:18;30.10;75.70